| time (UTC) | temp F | wind direction | speed knots | gust knots | rain 1hr in | rain 24hr in | rain mn in | humidity % | barometer mb |
| 20260906175015 | 99 | 106 | 0.0 | 0.9 | 0.00 | 0.00 | 0.00 | 43 | 1014.9 |
| 20260906174513 | 101 | 108 | 1.7 | 1.7 | 0.00 | 0.00 | 0.00 | 41 | 1014.9 |
| 20260906174009 | 101 | 155 | 0.9 | 0.9 | 0.00 | 0.00 | 0.00 | 40 | 1015.0 |
| 20260906173509 | 100 | 113 | 0.0 | 0.0 | 0.00 | 0.00 | 0.00 | 41 | 1015.2 |
| 20260906173004 | 100 | 132 | 0.9 | 0.9 | 0.00 | 0.00 | 0.00 | 41 | 1015.2 |
| 20260906172459 | 100 | 115 | 0.9 | 1.7 | 0.00 | 0.00 | 0.00 | 39 | 1015.2 |
| 20260906171954 | 100 | 119 | 0.9 | 0.9 | 0.00 | 0.00 | 0.00 | 39 | 1015.3 |
| 20260906171449 | 100 | 155 | 0.9 | 0.9 | 0.00 | 0.00 | 0.00 | 40 | 1015.3 |
| 20260906170944 | 100 | 111 | 0.9 | 0.9 | 0.00 | 0.00 | 0.00 | 39 | 1015.5 |
| 20260906170441 | 101 | 112 | 0.9 | 0.9 | 0.00 | 0.00 | 0.00 | 41 | 1015.5 |
| 20260906165937 | 99 | 131 | 0.9 | 0.9 | 0.00 | 0.00 | 0.00 | 46 | 1015.5 |
| 20260906165436 | 99 | 89 | 0.9 | 1.7 | 0.00 | 0.00 | 0.00 | 43 | 1015.9 |
| 20260906164931 | 99 | 131 | 0.9 | 0.9 | 0.00 | 0.00 | 0.00 | 43 | 1015.9 |
| 20260906164430 | 100 | 104 | 0.9 | 0.9 | 0.00 | 0.00 | 0.00 | 40 | 1015.7 |
| 20260906163927 | 100 | 150 | 0.9 | 0.9 | 0.00 | 0.00 | 0.00 | 43 | 1015.9 |
| 20260906163422 | 100 | 139 | 0.9 | 0.9 | 0.00 | 0.00 | 0.00 | 43 | 1015.8 |
| 20260906162920 | 99 | 126 | 0.0 | 0.0 | 0.00 | 0.00 | 0.00 | 45 | 1015.9 |
| 20260906162419 | 98 | 124 | 0.0 | 0.0 | 0.00 | 0.00 | 0.00 | 46 | 1015.8 |
| 20260906161915 | 98 | 119 | 0.0 | 0.9 | 0.00 | 0.00 | 0.00 | 45 | 1015.8 |
| 20260906161414 | 97 | 126 | 0.0 | 0.0 | 0.00 | 0.00 | 0.00 | 47 | 1015.8 |
| 20260906160913 | 98 | 127 | 0.9 | 1.7 | 0.00 | 0.00 | 0.00 | 46 | 1015.8 |
| 20260906160407 | 98 | 137 | 0.9 | 0.9 | 0.00 | 0.00 | 0.00 | 48 | 1015.3 |
| 20260906155904 | 98 | 125 | 0.9 | 0.9 | 0.00 | 0.00 | 0.00 | 48 | 1015.5 |
| 20260906155359 | 97 | 157 | 0.0 | 0.9 | 0.00 | 0.00 | 0.00 | 48 | 1015.6 |
| 20260906154855 | 96 | 117 | 0.0 | 0.0 | 0.00 | 0.00 | 0.00 | 50 | 1015.8 |
| 20260906154349 | 95 | 111 | 0.9 | 0.9 | 0.00 | 0.00 | 0.00 | 50 | 1015.7 |
| 20260906153848 | 96 | 117 | 0.9 | 0.9 | 0.00 | 0.00 | 0.00 | 50 | 1015.8 |
| 20260906153347 | 95 | 122 | 0.9 | 0.9 | 0.00 | 0.00 | 0.00 | 51 | 1015.8 |
| 20260906152842 | 95 | 124 | 0.9 | 0.9 | 0.00 | 0.00 | 0.00 | 52 | 1015.7 |
| 20260906152337 | 93 | 103 | 0.0 | 0.0 | 0.00 | 0.00 | 0.00 | 54 | 1015.7 |
| 20260906151836 | 94 | 102 | 0.9 | 0.9 | 0.00 | 0.00 | 0.00 | 53 | 1015.7 |
| 20260906151332 | 93 | 123 | 0.9 | 0.9 | 0.00 | 0.00 | 0.00 | 54 | 1015.8 |
| 20260906150828 | 92 | 112 | 0.0 | 0.0 | 0.00 | 0.00 | 0.00 | 55 | 1015.5 |
| 20260906150323 | 91 | 103 | 1.7 | 1.7 | 0.00 | 0.00 | 0.00 | 55 | 1015.6 |
| 20260906145822 | 91 | 127 | 1.7 | 1.7 | 0.00 | 0.00 | 0.00 | 56 | 1015.8 |
| 20260906145321 | 91 | 98 | 0.9 | 0.9 | 0.00 | 0.00 | 0.00 | 57 | 1015.8 |
| 20260906144816 | 90 | 130 | 0.0 | 0.0 | 0.00 | 0.00 | 0.00 | 59 | 1015.8 |
| 20260906144311 | 88 | 128 | 1.7 | 1.7 | 0.00 | 0.00 | 0.00 | 61 | 1015.6 |
| 20260906143810 | 87 | 126 | 0.9 | 0.9 | 0.00 | 0.00 | 0.00 | 63 | 1015.7 |
| 20260906143308 | 86 | 126 | 0.0 | 0.0 | 0.00 | 0.00 | 0.00 | 66 | 1015.5 |
| 20260906142802 | 86 | 100 | 0.9 | 1.7 | 0.00 | 0.00 | 0.00 | 65 | 1015.7 |
| 20260906142257 | 86 | 99 | 0.9 | 0.9 | 0.00 | 0.00 | 0.00 | 66 | 1015.7 |
| 20260906141756 | 85 | 126 | 0.9 | 0.9 | 0.00 | 0.00 | 0.00 | 66 | 1015.5 |
| 20260906141251 | 85 | 120 | 1.7 | 0.9 | 0.00 | 0.00 | 0.00 | 66 | 1015.6 |
| 20260906140750 | 85 | 114 | 1.7 | 1.7 | 0.00 | 0.00 | 0.00 | 67 | 1015.9 |
| 20260906140245 | 84 | 127 | 0.9 | 0.9 | 0.00 | 0.00 | 0.00 | 68 | 1015.7 |
| 20260906135742 | 84 | 125 | 0.0 | 0.0 | 0.00 | 0.00 | 0.00 | 69 | 1015.5 |
| 20260906135238 | 84 | 147 | 0.0 | 0.0 | 0.00 | 0.00 | 0.00 | 68 | 1015.6 |
| 20260906134734 | 83 | 146 | 0.0 | 0.0 | 0.00 | 0.00 | 0.00 | 69 | 1015.6 |
| 20260906134229 | 83 | 147 | 0.9 | 0.9 | 0.00 | 0.00 | 0.00 | 68 | 1015.6 |
| 20260906133724 | 83 | 137 | 0.0 | 0.0 | 0.00 | 0.00 | 0.00 | 69 | 1015.3 |
| 20260906133220 | 82 | 139 | 0.0 | 0.0 | 0.00 | 0.00 | 0.00 | 69 | 1015.3 |
| 20260906132715 | 82 | 139 | 0.0 | 0.0 | 0.00 | 0.00 | 0.00 | 70 | 1015.3 |
| 20260906132210 | 82 | 137 | 0.0 | 0.0 | 0.00 | 0.00 | 0.00 | 70 | 1015.2 |
| 20260906131706 | 81 | 136 | 0.0 | 0.0 | 0.00 | 0.00 | 0.00 | 71 | 1015.3 |
| 20260906131201 | 81 | 136 | 0.0 | 0.0 | 0.00 | 0.00 | 0.00 | 72 | 1015.3 |
| 20260906130656 | 80 | 135 | 0.0 | 0.0 | 0.00 | 0.00 | 0.00 | 72 | 1015.1 |
| 20260906130151 | 80 | 136 | 0.9 | 0.9 | 0.00 | 0.00 | 0.00 | 73 | 1015.2 |
| 20260906125649 | 80 | 136 | 0.0 | 0.0 | 0.00 | 0.00 | 0.00 | 74 | 1015.1 |
| 20260906125148 | 80 | 136 | 0.9 | 0.9 | 0.00 | 0.00 | 0.00 | 74 | 1014.9 |
| 20260906124643 | 79 | 135 | 0.0 | 0.0 | 0.00 | 0.00 | 0.00 | 73 | 1015.0 |
| 20260906124139 | 79 | 135 | 0.0 | 0.0 | 0.00 | 0.00 | 0.00 | 74 | 1014.8 |
| 20260906123637 | 79 | 136 | 0.0 | 0.0 | 0.00 | 0.00 | 0.00 | 74 | 1014.8 |
| 20260906123133 | 78 | 135 | 0.0 | 0.0 | 0.00 | 0.00 | 0.00 | 74 | 1014.9 |
| 20260906122632 | 78 | 135 | 0.9 | 0.9 | 0.00 | 0.00 | 0.00 | 74 | 1014.7 |
| 20260906122128 | 78 | 136 | 0.0 | 0.0 | 0.00 | 0.00 | 0.00 | 76 | 1014.6 |
| 20260906121624 | 78 | 136 | 0.0 | 0.0 | 0.00 | 0.00 | 0.00 | 75 | 1014.5 |
| 20260906121120 | 78 | 136 | 0.0 | 0.0 | 0.00 | 0.00 | 0.00 | 75 | 1014.6 |
| 20260906120615 | 78 | 136 | 0.0 | 0.0 | 0.00 | 0.00 | 0.00 | 76 | 1014.7 |
| 20260906120113 | 78 | 136 | 0.0 | 0.0 | 0.00 | 0.00 | 0.00 | 76 | 1014.7 |
| 20260906115612 | 78 | 136 | 0.0 | 0.0 | 0.00 | 0.00 | 0.00 | 76 | 1014.6 |
| 20260906115109 | 78 | 136 | 0.0 | 0.0 | 0.00 | 0.00 | 0.00 | 75 | 1014.4 |
| 20260906114608 | 78 | 136 | 0.0 | 0.0 | 0.00 | 0.00 | 0.00 | 75 | 1014.6 |
| 20260906114103 | 78 | 136 | 0.0 | 0.0 | 0.00 | 0.00 | 0.00 | 74 | 1014.3 |
| 20260906113603 | 78 | 136 | 0.0 | 0.0 | 0.00 | 0.00 | 0.00 | 73 | 1014.5 |
| 20260906113058 | 78 | 137 | 0.0 | 0.0 | 0.00 | 0.00 | 0.00 | 74 | 1014.3 |
| 20260906112557 | 78 | 136 | 0.0 | 0.0 | 0.00 | 0.00 | 0.00 | 74 | 1014.4 |
| 20260906112055 | 78 | 136 | 0.0 | 0.0 | 0.00 | 0.00 | 0.00 | 74 | 1014.2 |
| 20260906111553 | 78 | 137 | 0.0 | 0.0 | 0.00 | 0.00 | 0.00 | 75 | 1014.5 |
| 20260906111049 | 78 | 137 | 0.0 | 0.0 | 0.00 | 0.00 | 0.00 | 76 | 1014.2 |
| 20260906110549 | 78 | 137 | 0.0 | 0.0 | 0.00 | 0.00 | 0.00 | 77 | 1014.3 |
| 20260906110048 | 78 | 137 | 0.0 | 0.0 | 0.00 | 0.00 | 0.00 | 76 | 1014.2 |
| 20260906105543 | 78 | 137 | 0.0 | 0.0 | 0.00 | 0.00 | 0.00 | 77 | 1014.3 |
| 20260906105039 | 78 | 137 | 0.0 | 0.0 | 0.00 | 0.00 | 0.00 | 76 | 1014.2 |
| 20260906104537 | 78 | 137 | 0.0 | 0.9 | 0.00 | 0.00 | 0.00 | 76 | 1014.4 |
| 20260906104032 | 78 | 137 | 0.0 | 0.0 | 0.00 | 0.00 | 0.00 | 78 | 1014.4 |
| 20260906103530 | 77 | 137 | 0.0 | 0.0 | 0.00 | 0.00 | 0.00 | 76 | 1014.2 |
| 20260906103026 | 77 | 137 | 0.0 | 0.0 | 0.00 | 0.00 | 0.00 | 78 | 1014.3 |
| 20260906102526 | 77 | 137 | 0.0 | 0.0 | 0.00 | 0.00 | 0.00 | 80 | 1014.2 |
| 20260906102021 | 77 | 137 | 0.0 | 0.0 | 0.00 | 0.00 | 0.00 | 80 | 1014.1 |
| 20260906101515 | 77 | 137 | 0.0 | 0.0 | 0.00 | 0.00 | 0.00 | 81 | 1014.2 |
| 20260906101010 | 77 | 137 | 0.0 | 0.0 | 0.00 | 0.00 | 0.00 | 82 | 1014.1 |
| 20260906100506 | 76 | 137 | 0.0 | 0.0 | 0.00 | 0.00 | 0.00 | 82 | 1014.1 |
| 20260906100006 | 76 | 137 | 0.0 | 0.0 | 0.00 | 0.00 | 0.00 | 82 | 1014.0 |
| 20260906095501 | 76 | 137 | 0.0 | 0.0 | 0.00 | 0.00 | 0.00 | 82 | 1014.2 |
| 20260906094956 | 76 | 137 | 0.0 | 0.0 | 0.00 | 0.00 | 0.00 | 82 | 1014.0 |
| 20260906094455 | 76 | 137 | 0.0 | 0.0 | 0.00 | 0.00 | 0.00 | 83 | 1014.0 |
| 20260906093951 | 76 | 137 | 0.0 | 0.0 | 0.00 | 0.00 | 0.00 | 82 | 1013.9 |
| 20260906093448 | 77 | 137 | 0.0 | 0.0 | 0.00 | 0.00 | 0.00 | 81 | 1013.9 |
| 20260906092948 | 77 | 137 | 0.0 | 0.0 | 0.00 | 0.00 | 0.00 | 81 | 1013.8 |
| 20260906092448 | 77 | 137 | 0.0 | 0.0 | 0.00 | 0.00 | 0.00 | 81 | 1013.9 |
| 20260906091943 | 77 | 137 | 0.0 | 0.0 | 0.00 | 0.00 | 0.00 | 80 | 1014.0 |
| 20260906091438 | 77 | 137 | 0.0 | 0.0 | 0.00 | 0.00 | 0.00 | 80 | 1013.7 |
| 20260906090935 | 77 | 137 | 0.0 | 0.0 | 0.00 | 0.00 | 0.00 | 80 | 1013.7 |
| 20260906090430 | 77 | 137 | 0.0 | 0.0 | 0.00 | 0.00 | 0.00 | 79 | 1013.6 |
| 20260906085924 | 77 | 137 | 0.0 | 0.0 | 0.00 | 0.00 | 0.00 | 79 | 1013.8 |
| 20260906085423 | 77 | 137 | 0.0 | 0.0 | 0.00 | 0.00 | 0.00 | 78 | 1013.6 |
| 20260906084922 | 77 | 137 | 0.0 | 0.0 | 0.00 | 0.00 | 0.00 | 78 | 1013.7 |
| 20260906084418 | 77 | 137 | 0.0 | 0.0 | 0.00 | 0.00 | 0.00 | 81 | 1013.6 |
| 20260906083917 | 77 | 137 | 0.0 | 0.0 | 0.00 | 0.00 | 0.00 | 79 | 1013.6 |
| 20260906083413 | 77 | 137 | 0.0 | 0.0 | 0.00 | 0.00 | 0.00 | 80 | 1013.6 |
| 20260906082912 | 77 | 137 | 0.0 | 0.0 | 0.00 | 0.00 | 0.00 | 80 | 1013.7 |
| 20260906082407 | 77 | 137 | 0.0 | 0.0 | 0.00 | 0.00 | 0.00 | 80 | 1013.6 |
| 20260906081903 | 77 | 137 | 0.0 | 0.0 | 0.00 | 0.00 | 0.00 | 80 | 1013.6 |
| 20260906081358 | 77 | 137 | 0.0 | 0.0 | 0.00 | 0.00 | 0.00 | 80 | 1013.6 |
| 20260906080854 | 78 | 137 | 0.0 | 0.0 | 0.00 | 0.00 | 0.00 | 80 | 1013.5 |
| 20260906080351 | 78 | 137 | 0.0 | 0.0 | 0.00 | 0.00 | 0.00 | 79 | 1013.8 |
| 20260906075849 | 78 | 137 | 0.0 | 0.0 | 0.00 | 0.00 | 0.00 | 79 | 1013.6 |
| 20260906075344 | 78 | 137 | 0.0 | 0.0 | 0.00 | 0.00 | 0.00 | 79 | 1013.4 |
| 20260906074840 | 78 | 137 | 0.0 | 0.0 | 0.00 | 0.00 | 0.00 | 78 | 1013.5 |
| 20260906074340 | 78 | 137 | 0.0 | 0.0 | 0.00 | 0.00 | 0.00 | 78 | 1013.5 |
| 20260906073838 | 78 | 137 | 0.0 | 0.0 | 0.00 | 0.00 | 0.00 | 78 | 1013.6 |
| 20260906073334 | 78 | 137 | 0.0 | 0.0 | 0.00 | 0.00 | 0.00 | 77 | 1013.6 |
| 20260906072830 | 78 | 137 | 0.0 | 0.0 | 0.00 | 0.00 | 0.00 | 77 | 1013.5 |
| 20260906072326 | 78 | 137 | 0.0 | 0.0 | 0.00 | 0.00 | 0.00 | 76 | 1013.5 |
| 20260906071822 | 78 | 137 | 0.0 | 0.0 | 0.00 | 0.00 | 0.00 | 76 | 1013.4 |
| 20260906071322 | 78 | 137 | 0.0 | 0.0 | 0.00 | 0.00 | 0.00 | 76 | 1013.5 |
| 20260906070818 | 79 | 137 | 0.0 | 0.0 | 0.00 | 0.00 | 0.00 | 75 | 1013.6 |
| 20260906070313 | 79 | 137 | 0.0 | 0.0 | 0.00 | 0.00 | 0.00 | 75 | 1013.5 |
| 20260906065305 | 79 | 137 | 0.0 | 0.0 | 0.00 | 0.00 | 0.00 | 74 | 1013.4 |
| 20260906064759 | 79 | 137 | 0.0 | 0.0 | 0.00 | 0.00 | 0.00 | 73 | 1013.7 |
| 20260906064255 | 79 | 137 | 0.0 | 0.0 | 0.00 | 0.00 | 0.00 | 73 | 1013.7 |
| 20260906063749 | 79 | 137 | 0.0 | 0.0 | 0.00 | 0.00 | 0.00 | 72 | 1013.8 |
| 20260906063245 | 80 | 137 | 0.0 | 0.0 | 0.00 | 0.00 | 0.00 | 72 | 1013.7 |
| 20260906062740 | 80 | 137 | 0.0 | 0.0 | 0.00 | 0.00 | 0.00 | 73 | 1013.6 |
| 20260906062239 | 80 | 137 | 0.0 | 0.0 | 0.00 | 0.00 | 0.00 | 73 | 1013.9 |
| 20260906061735 | 80 | 137 | 0.0 | 0.0 | 0.00 | 0.00 | 0.00 | 73 | 1013.7 |
| 20260906061231 | 80 | 137 | 0.0 | 0.0 | 0.00 | 0.00 | 0.00 | 73 | 1013.8 |
| 20260906060726 | 80 | 137 | 0.0 | 0.0 | 0.00 | 0.00 | 0.00 | 73 | 1013.7 |
| 20260906060224 | 80 | 137 | 0.0 | 0.0 | 0.00 | 0.00 | 0.00 | 73 | 1013.9 |
| 20260906055719 | 80 | 137 | 0.0 | 0.0 | 0.00 | 0.00 | 0.00 | 73 | 1013.8 |
| 20260906055214 | 81 | 137 | 0.0 | 0.0 | 0.00 | 0.00 | 0.00 | 72 | 1014.0 |
| 20260906054709 | 81 | 137 | 0.0 | 0.0 | 0.00 | 0.00 | 0.00 | 72 | 1014.0 |
| 20260906054204 | 81 | 137 | 0.0 | 0.0 | 0.00 | 0.00 | 0.00 | 72 | 1014.1 |
| 20260906053701 | 81 | 137 | 0.0 | 0.0 | 0.00 | 0.00 | 0.00 | 71 | 1014.2 |
| 20260906053156 | 81 | 137 | 0.0 | 0.0 | 0.00 | 0.00 | 0.00 | 71 | 1014.1 |
| 20260906052651 | 81 | 137 | 0.0 | 0.0 | 0.00 | 0.00 | 0.00 | 71 | 1014.0 |
| 20260906052148 | 81 | 137 | 0.0 | 0.0 | 0.00 | 0.00 | 0.00 | 70 | 1014.1 |
| 20260906051644 | 81 | 137 | 0.0 | 0.0 | 0.00 | 0.00 | 0.00 | 70 | 1013.8 |
| 20260906051143 | 81 | 137 | 0.0 | 0.0 | 0.00 | 0.00 | 0.00 | 70 | 1014.1 |
| 20260906050639 | 81 | 137 | 0.0 | 0.0 | 0.00 | 0.00 | 0.00 | 71 | 1013.9 |
| 20260906050134 | 82 | 137 | 0.0 | 0.0 | 0.00 | 0.00 | 0.00 | 71 | 1013.8 |
| 20260906045632 | 82 | 137 | 0.0 | 0.0 | 0.00 | 0.00 | 0.00 | 71 | 1014.0 |
| 20260906045128 | 82 | 137 | 0.0 | 0.0 | 0.00 | 0.00 | 0.00 | 70 | 1014.0 |
| 20260906044624 | 82 | 137 | 0.0 | 0.0 | 0.00 | 0.00 | 0.00 | 68 | 1013.9 |
| 20260906044119 | 82 | 137 | 0.0 | 0.0 | 0.00 | 0.00 | 0.00 | 67 | 1013.9 |
| 20260906043615 | 82 | 137 | 0.0 | 0.0 | 0.00 | 0.00 | 0.00 | 68 | 1014.1 |
| 20260906043110 | 82 | 137 | 0.0 | 0.0 | 0.00 | 0.00 | 0.00 | 69 | 1014.0 |
| 20260906042609 | 82 | 137 | 0.0 | 0.0 | 0.00 | 0.00 | 0.00 | 69 | 1014.1 |
| 20260906042104 | 82 | 137 | 0.0 | 0.0 | 0.00 | 0.00 | 0.00 | 69 | 1013.9 |
| 20260906041600 | 82 | 137 | 0.0 | 0.0 | 0.00 | 0.00 | 0.00 | 69 | 1013.9 |
| 20260906041054 | 82 | 137 | 0.0 | 0.0 | 0.00 | 0.00 | 0.00 | 68 | 1013.9 |
| 20260906040550 | 83 | 137 | 0.0 | 0.0 | 0.00 | 0.00 | 0.00 | 69 | 1013.7 |
| 20260906040045 | 83 | 137 | 0.0 | 0.0 | 0.00 | 0.00 | 0.00 | 69 | 1013.8 |
| 20260906035541 | 83 | 137 | 0.0 | 0.0 | 0.00 | 0.00 | 0.00 | 68 | 1013.7 |
| 20260906035037 | 83 | 137 | 0.0 | 0.0 | 0.00 | 0.00 | 0.00 | 69 | 1013.8 |
| 20260906034536 | 83 | 137 | 0.0 | 0.0 | 0.00 | 0.00 | 0.00 | 68 | 1013.5 |
| 20260906034031 | 83 | 137 | 0.0 | 0.0 | 0.00 | 0.00 | 0.00 | 67 | 1013.7 |
| 20260906033526 | 84 | 137 | 0.0 | 0.0 | 0.00 | 0.00 | 0.00 | 66 | 1013.5 |
| 20260906033022 | 84 | 137 | 0.0 | 0.0 | 0.00 | 0.00 | 0.00 | 66 | 1013.6 |
| 20260906032519 | 84 | 137 | 0.0 | 0.0 | 0.00 | 0.00 | 0.00 | 65 | 1013.6 |
| 20260906032018 | 84 | 137 | 0.0 | 0.0 | 0.00 | 0.00 | 0.00 | 65 | 1013.5 |
| 20260906031514 | 84 | 137 | 0.0 | 0.0 | 0.00 | 0.00 | 0.00 | 65 | 1013.4 |
| 20260906031009 | 85 | 137 | 0.0 | 0.0 | 0.00 | 0.00 | 0.00 | 64 | 1013.4 |
| 20260906030509 | 85 | 137 | 0.0 | 0.0 | 0.00 | 0.00 | 0.00 | 63 | 1013.1 |
| 20260906030009 | 85 | 137 | 0.0 | 0.0 | 0.00 | 0.00 | 0.00 | 63 | 1013.2 |
| 20260906025508 | 85 | 137 | 0.0 | 0.0 | 0.00 | 0.00 | 0.00 | 63 | 1013.0 |
| 20260906025007 | 86 | 137 | 0.0 | 0.0 | 0.00 | 0.00 | 0.00 | 65 | 1013.0 |
| 20260906024502 | 86 | 137 | 0.0 | 0.0 | 0.00 | 0.00 | 0.00 | 64 | 1012.9 |
| 20260906024002 | 86 | 137 | 0.0 | 0.0 | 0.00 | 0.00 | 0.00 | 64 | 1013.1 |
| 20260906023458 | 86 | 137 | 0.0 | 0.0 | 0.00 | 0.00 | 0.00 | 64 | 1013.0 |
| 20260906022953 | 86 | 137 | 0.0 | 0.0 | 0.00 | 0.00 | 0.00 | 63 | 1013.2 |
| 20260906022448 | 87 | 137 | 0.0 | 0.0 | 0.00 | 0.00 | 0.00 | 63 | 1013.1 |
| 20260906021943 | 87 | 137 | 0.0 | 0.0 | 0.00 | 0.00 | 0.00 | 60 | 1012.9 |
| 20260906021444 | 87 | 137 | 0.0 | 0.0 | 0.00 | 0.00 | 0.00 | 60 | 1012.7 |
| 20260906020938 | 87 | 137 | 0.0 | 0.0 | 0.00 | 0.00 | 0.00 | 59 | 1012.7 |
| 20260906020433 | 87 | 137 | 0.0 | 0.0 | 0.00 | 0.00 | 0.00 | 60 | 1012.6 |
| 20260906015927 | 87 | 137 | 0.0 | 0.0 | 0.00 | 0.00 | 0.00 | 60 | 1012.5 |
| 20260906015427 | 88 | 137 | 0.0 | 0.0 | 0.00 | 0.00 | 0.00 | 60 | 1012.5 |
| 20260906014926 | 88 | 137 | 0.0 | 0.0 | 0.00 | 0.00 | 0.00 | 60 | 1012.3 |
| 20260906014426 | 88 | 137 | 0.0 | 0.0 | 0.00 | 0.00 | 0.00 | 58 | 1012.5 |
| 20260906013922 | 88 | 137 | 0.0 | 0.0 | 0.00 | 0.00 | 0.00 | 57 | 1012.4 |
| 20260906013418 | 89 | 137 | 0.0 | 0.0 | 0.00 | 0.00 | 0.00 | 56 | 1012.4 |
| 20260906012914 | 89 | 137 | 0.0 | 0.0 | 0.00 | 0.00 | 0.00 | 56 | 1012.3 |
| 20260906012408 | 89 | 137 | 0.0 | 0.0 | 0.00 | 0.00 | 0.00 | 55 | 1012.3 |
| 20260906011907 | 89 | 137 | 0.0 | 0.0 | 0.00 | 0.00 | 0.00 | 55 | 1012.4 |
| 20260906011403 | 89 | 136 | 0.0 | 0.0 | 0.00 | 0.00 | 0.00 | 55 | 1012.4 |
| 20260906010858 | 90 | 136 | 0.0 | 0.0 | 0.00 | 0.00 | 0.00 | 55 | 1012.2 |
| 20260906010354 | 90 | 136 | 0.0 | 0.0 | 0.00 | 0.00 | 0.00 | 54 | 1012.3 |
| 20260906005850 | 90 | 136 | 0.0 | 0.0 | 0.00 | 0.00 | 0.00 | 53 | 1012.2 |
| 20260906005349 | 90 | 136 | 0.0 | 0.0 | 0.00 | 0.00 | 0.00 | 53 | 1012.2 |
| 20260906004848 | 91 | 136 | 0.0 | 0.0 | 0.00 | 0.00 | 0.00 | 52 | 1012.1 |
| 20260906004347 | 91 | 136 | 0.0 | 0.0 | 0.00 | 0.00 | 0.00 | 52 | 1012.2 |
| 20260906003842 | 91 | 136 | 0.0 | 0.0 | 0.00 | 0.00 | 0.00 | 51 | 1012.1 |
| 20260906003338 | 92 | 136 | 0.0 | 0.0 | 0.00 | 0.00 | 0.00 | 50 | 1012.1 |
| 20260906002833 | 92 | 138 | 0.0 | 0.0 | 0.00 | 0.00 | 0.00 | 50 | 1012.2 |
| 20260906002332 | 92 | 138 | 0.0 | 0.0 | 0.00 | 0.00 | 0.00 | 49 | 1012.2 |
| 20260906001828 | 93 | 138 | 0.0 | 0.0 | 0.00 | 0.00 | 0.00 | 49 | 1012.3 |
| 20260906001324 | 93 | 138 | 0.0 | 0.0 | 0.00 | 0.00 | 0.00 | 48 | 1012.2 |
| 20260906000819 | 93 | 137 | 0.0 | 0.0 | 0.00 | 0.00 | 0.00 | 48 | 1012.2 |
| 20260906000313 | 94 | 137 | 0.0 | 0.0 | 0.00 | 0.00 | 0.00 | 47 | 1012.1 |
| 20260905235808 | 94 | 137 | 0.0 | 0.0 | 0.00 | 0.00 | 0.00 | 47 | 1012.0 |
| 20260905235308 | 95 | 137 | 0.9 | 0.9 | 0.00 | 0.00 | 0.00 | 45 | 1012.0 |
| 20260905234804 | 95 | 131 | 0.9 | 0.9 | 0.00 | 0.00 | 0.00 | 45 | 1012.0 |
| 20260905234259 | 95 | 107 | 0.0 | 0.0 | 0.00 | 0.00 | 0.00 | 46 | 1012.0 |
| 20260905233754 | 95 | 134 | 0.9 | 0.0 | 0.00 | 0.00 | 0.00 | 45 | 1011.7 |
| 20260905233254 | 95 | 154 | 0.9 | 0.9 | 0.00 | 0.00 | 0.00 | 45 | 1011.9 |
| 20260905232753 | 96 | 132 | 0.0 | 0.0 | 0.00 | 0.00 | 0.00 | 45 | 1012.1 |
| 20260905232249 | 96 | 141 | 1.7 | 2.6 | 0.00 | 0.00 | 0.00 | 43 | 1011.9 |
| 20260905231745 | 96 | 139 | 0.0 | 0.0 | 0.00 | 0.00 | 0.00 | 44 | 1012.0 |
| 20260905231240 | 96 | 140 | 0.9 | 0.9 | 0.00 | 0.00 | 0.00 | 44 | 1011.7 |
| 20260905230736 | 96 | 101 | 0.9 | 0.9 | 0.00 | 0.00 | 0.00 | 44 | 1011.7 |
| 20260905230234 | 96 | 152 | 0.9 | 0.9 | 0.00 | 0.00 | 0.00 | 44 | 1011.9 |
| 20260905225734 | 96 | 151 | 0.9 | 0.9 | 0.00 | 0.00 | 0.00 | 44 | 1011.6 |
| 20260905225229 | 97 | 138 | 0.0 | 0.0 | 0.00 | 0.00 | 0.00 | 44 | 1011.6 |
| 20260905224728 | 96 | 140 | 0.0 | 0.0 | 0.00 | 0.00 | 0.00 | 44 | 1011.9 |
| 20260905224224 | 97 | 197 | 1.7 | 1.7 | 0.00 | 0.00 | 0.00 | 44 | 1011.5 |
| 20260905223720 | 97 | 104 | 0.0 | 0.0 | 0.00 | 0.00 | 0.00 | 43 | 1011.9 |
| 20260905223216 | 98 | 165 | 1.7 | 1.7 | 0.00 | 0.00 | 0.00 | 42 | 1012.0 |
| 20260905222712 | 99 | 166 | 0.0 | 0.0 | 0.00 | 0.00 | 0.00 | 40 | 1011.9 |
| 20260905222211 | 101 | 108 | 0.9 | 0.9 | 0.00 | 0.00 | 0.00 | 39 | 1012.0 |
| 20260905221707 | 101 | 161 | 0.0 | 0.0 | 0.00 | 0.00 | 0.00 | 40 | 1012.1 |
| 20260905221204 | 101 | 169 | 1.7 | 1.7 | 0.00 | 0.00 | 0.00 | 39 | 1011.9 |
| 20260905220659 | 101 | 165 | 2.6 | 3.5 | 0.00 | 0.00 | 0.00 | 39 | 1012.1 |
| 20260905220155 | 102 | 201 | 0.9 | 0.9 | 0.00 | 0.00 | 0.00 | 39 | 1012.3 |
| 20260905215654 | 102 | 161 | 0.9 | 0.9 | 0.00 | 0.00 | 0.00 | 37 | 1012.2 |
| 20260905215150 | 102 | 158 | 0.9 | 0.9 | 0.00 | 0.00 | 0.00 | 38 | 1012.1 |
| 20260905214646 | 101 | 107 | 0.9 | 0.9 | 0.00 | 0.00 | 0.00 | 38 | 1012.3 |
| 20260905214141 | 100 | 120 | 1.7 | 2.6 | 0.00 | 0.00 | 0.00 | 38 | 1012.3 |
| 20260905213636 | 100 | 170 | 0.9 | 0.9 | 0.00 | 0.00 | 0.00 | 39 | 1012.3 |
| 20260905213131 | 100 | 173 | 1.7 | 1.7 | 0.00 | 0.00 | 0.00 | 39 | 1012.5 |
| 20260905212627 | 100 | 90 | 1.7 | 0.9 | 0.00 | 0.00 | 0.00 | 35 | 1012.4 |
| 20260905212126 | 100 | 104 | 0.9 | 0.9 | 0.00 | 0.00 | 0.00 | 34 | 1012.2 |
| 20260905211621 | 101 | 102 | 0.9 | 0.9 | 0.00 | 0.00 | 0.00 | 33 | 1012.7 |
| 20260905211117 | 101 | 107 | 0.9 | 0.9 | 0.00 | 0.00 | 0.00 | 35 | 1012.6 |
| 20260905210613 | 100 | 104 | 0.9 | 0.9 | 0.00 | 0.00 | 0.00 | 35 | 1012.7 |
| 20260905210107 | 100 | 137 | 0.9 | 0.9 | 0.00 | 0.00 | 0.00 | 35 | 1012.7 |
| 20260905205607 | 100 | 118 | 0.9 | 0.9 | 0.00 | 0.00 | 0.00 | 34 | 1012.7 |
| 20260905205106 | 99 | 123 | 0.9 | 0.9 | 0.00 | 0.00 | 0.00 | 36 | 1012.7 |
| 20260905204601 | 98 | 71 | 1.7 | 2.6 | 0.00 | 0.00 | 0.00 | 37 | 1012.8 |
| 20260905204056 | 97 | 127 | 0.9 | 0.9 | 0.00 | 0.00 | 0.00 | 38 | 1012.7 |
| 20260905203556 | 98 | 186 | 1.7 | 2.6 | 0.00 | 0.00 | 0.00 | 37 | 1012.9 |
| 20260905203051 | 100 | 186 | 2.6 | 2.6 | 0.00 | 0.00 | 0.00 | 36 | 1012.9 |
| 20260905202546 | 100 | 148 | 1.7 | 1.7 | 0.00 | 0.00 | 0.00 | 34 | 1013.1 |
| 20260905202042 | 100 | 163 | 0.0 | 0.9 | 0.00 | 0.00 | 0.00 | 36 | 1013.1 |
| 20260905201538 | 100 | 101 | 0.9 | 0.0 | 0.00 | 0.00 | 0.00 | 37 | 1013.2 |
| 20260905201037 | 100 | 97 | 0.0 | 0.0 | 0.00 | 0.00 | 0.00 | 36 | 1013.1 |
| 20260905200533 | 101 | 88 | 1.7 | 1.7 | 0.00 | 0.00 | 0.00 | 35 | 1013.4 |
| 20260905200032 | 102 | 148 | 0.9 | 0.9 | 0.00 | 0.00 | 0.00 | 34 | 1013.6 |
| 20260905195526 | 102 | 123 | 0.0 | 0.0 | 0.00 | 0.00 | 0.00 | 34 | 1013.3 |
| 20260905195022 | 102 | 138 | 1.7 | 1.7 | 0.00 | 0.00 | 0.00 | 34 | 1013.5 |
| 20260905194522 | 101 | 158 | 0.9 | 0.9 | 0.00 | 0.00 | 0.00 | 38 | 1013.6 |
| 20260905194022 | 100 | 178 | 0.9 | 0.9 | 0.00 | 0.00 | 0.00 | 39 | 1013.5 |
| 20260905193522 | 100 | 109 | 0.9 | 0.9 | 0.00 | 0.00 | 0.00 | 36 | 1013.5 |
| 20260905193017 | 100 | 108 | 0.0 | 0.0 | 0.00 | 0.00 | 0.00 | 36 | 1013.9 |
| 20260905192512 | 100 | 128 | 0.9 | 0.9 | 0.00 | 0.00 | 0.00 | 36 | 1013.8 |
| 20260905192009 | 101 | 110 | 0.0 | 0.0 | 0.00 | 0.00 | 0.00 | 36 | 1013.7 |
| 20260905191507 | 100 | 124 | 0.9 | 0.9 | 0.00 | 0.00 | 0.00 | 36 | 1013.8 |
| 20260905191006 | 101 | 119 | 0.9 | 0.9 | 0.00 | 0.00 | 0.00 | 36 | 1013.9 |
| 20260905190504 | 102 | 136 | 2.6 | 3.5 | 0.00 | 0.00 | 0.00 | 33 | 1014.0 |
| 20260905190004 | 102 | 142 | 1.7 | 1.7 | 0.00 | 0.00 | 0.00 | 36 | 1013.8 |
| 20260905185458 | 102 | 118 | 0.9 | 0.0 | 0.00 | 0.00 | 0.00 | 34 | 1014.0 |
| 20260905184957 | 102 | 111 | 0.9 | 0.9 | 0.00 | 0.00 | 0.00 | 35 | 1014.0 |
| 20260905184452 | 103 | 114 | 1.7 | 1.7 | 0.00 | 0.00 | 0.00 | 34 | 1014.1 |
| 20260905183951 | 102 | 121 | 0.0 | 0.0 | 0.00 | 0.00 | 0.00 | 35 | 1014.1 |
| 20260905183450 | 101 | 101 | 0.0 | 0.0 | 0.00 | 0.00 | 0.00 | 35 | 1014.2 |
| 20260905182946 | 101 | 93 | 0.9 | 0.9 | 0.00 | 0.00 | 0.00 | 36 | 1014.3 |
| 20260905182445 | 100 | 118 | 0.9 | 0.9 | 0.00 | 0.00 | 0.00 | 37 | 1014.4 |
| 20260905181940 | 101 | 157 | 1.7 | 2.6 | 0.00 | 0.00 | 0.00 | 36 | 1014.5 |
| 20260905181435 | 102 | 163 | 2.6 | 2.6 | 0.00 | 0.00 | 0.00 | 36 | 1014.5 |
| 20260905180934 | 103 | 238 | 1.7 | 2.6 | 0.00 | 0.00 | 0.00 | 35 | 1014.6 |
| 20260905180429 | 102 | 124 | 0.9 | 0.9 | 0.00 | 0.00 | 0.00 | 36 | 1014.5 |
| 20260905175924 | 101 | 163 | 0.0 | 0.0 | 0.00 | 0.00 | 0.00 | 37 | 1014.6 |
| 20260905175424 | 101 | 108 | 0.9 | 0.9 | 0.00 | 0.00 | 0.00 | 37 | 1014.9 |